sensor_id;sensor_type;location;lat;lon;timestamp;temperature;humidity
65291;SHT30;51893;59.754;10.110;2023-09-30T00:00:00;10.41;85.31
65291;SHT30;51893;59.754;10.110;2023-09-30T00:02:30;10.39;85.94
65291;SHT30;51893;59.754;10.110;2023-09-30T00:04:58;10.34;87.02
65291;SHT30;51893;59.754;10.110;2023-09-30T00:07:27;10.29;87.10
65291;SHT30;51893;59.754;10.110;2023-09-30T00:09:55;10.31;87.03
65291;SHT30;51893;59.754;10.110;2023-09-30T00:12:24;10.36;86.71
65291;SHT30;51893;59.754;10.110;2023-09-30T00:14:55;10.31;86.29
65291;SHT30;51893;59.754;10.110;2023-09-30T00:17:23;10.29;86.11
65291;SHT30;51893;59.754;10.110;2023-09-30T00:19:51;10.31;86.16
65291;SHT30;51893;59.754;10.110;2023-09-30T00:22:20;10.32;85.87
65291;SHT30;51893;59.754;10.110;2023-09-30T00:24:48;10.29;85.68
65291;SHT30;51893;59.754;10.110;2023-09-30T00:27:17;10.28;85.46
65291;SHT30;51893;59.754;10.110;2023-09-30T00:29:45;10.28;85.39
65291;SHT30;51893;59.754;10.110;2023-09-30T00:32:14;10.24;85.54
65291;SHT30;51893;59.754;10.110;2023-09-30T00:34:42;10.24;85.64
65291;SHT30;51893;59.754;10.110;2023-09-30T00:37:10;10.16;86.48
65291;SHT30;51893;59.754;10.110;2023-09-30T00:39:38;10.16;86.92
65291;SHT30;51893;59.754;10.110;2023-09-30T00:42:06;10.14;87.35
65291;SHT30;51893;59.754;10.110;2023-09-30T00:44:34;10.13;87.20
65291;SHT30;51893;59.754;10.110;2023-09-30T00:47:02;10.13;87.02
65291;SHT30;51893;59.754;10.110;2023-09-30T00:49:32;10.12;86.77
65291;SHT30;51893;59.754;10.110;2023-09-30T00:52:01;10.07;86.47
65291;SHT30;51893;59.754;10.110;2023-09-30T00:54:31;10.07;86.28
65291;SHT30;51893;59.754;10.110;2023-09-30T00:56:59;10.05;86.26
65291;SHT30;51893;59.754;10.110;2023-09-30T00:59:30;10.09;86.23
65291;SHT30;51893;59.754;10.110;2023-09-30T01:02:00;10.01;86.08
65291;SHT30;51893;59.754;10.110;2023-09-30T01:04:29;9.95;86.28
65291;SHT30;51893;59.754;10.110;2023-09-30T01:06:57;9.97;86.41
65291;SHT30;51893;59.754;10.110;2023-09-30T01:09:25;10.01;86.34
65291;SHT30;51893;59.754;10.110;2023-09-30T01:11:55;10.03;86.26
65291;SHT30;51893;59.754;10.110;2023-09-30T01:14:27;10.07;86.43
65291;SHT30;51893;59.754;10.110;2023-09-30T01:17:00;10.09;86.59
65291;SHT30;51893;59.754;10.110;2023-09-30T01:19:30;10.09;86.70
65291;SHT30;51893;59.754;10.110;2023-09-30T01:22:00;10.08;87.03
65291;SHT30;51893;59.754;10.110;2023-09-30T01:24:30;10.08;87.04
65291;SHT30;51893;59.754;10.110;2023-09-30T01:26:59;10.12;86.83
65291;SHT30;51893;59.754;10.110;2023-09-30T01:29:27;10.06;86.54
65291;SHT30;51893;59.754;10.110;2023-09-30T01:31:56;9.99;86.57
65291;SHT30;51893;59.754;10.110;2023-09-30T01:34:24;9.97;86.69
65291;SHT30;51893;59.754;10.110;2023-09-30T01:36:52;9.94;86.79
65291;SHT30;51893;59.754;10.110;2023-09-30T01:39:20;9.95;86.81
65291;SHT30;51893;59.754;10.110;2023-09-30T01:41:48;10.01;86.77
65291;SHT30;51893;59.754;10.110;2023-09-30T01:44:16;10.02;86.55
65291;SHT30;51893;59.754;10.110;2023-09-30T01:46:46;10.03;86.56
65291;SHT30;51893;59.754;10.110;2023-09-30T01:49:14;10.10;86.45
65291;SHT30;51893;59.754;10.110;2023-09-30T01:51:41;10.10;86.45
65291;SHT30;51893;59.754;10.110;2023-09-30T01:54:11;10.17;86.38
65291;SHT30;51893;59.754;10.110;2023-09-30T01:56:40;10.16;86.22
65291;SHT30;51893;59.754;10.110;2023-09-30T01:59:08;10.10;86.43
65291;SHT30;51893;59.754;10.110;2023-09-30T02:01:36;10.18;86.63
65291;SHT30;51893;59.754;10.110;2023-09-30T02:04:04;10.22;86.45
65291;SHT30;51893;59.754;10.110;2023-09-30T02:06:34;10.16;86.62
65291;SHT30;51893;59.754;10.110;2023-09-30T02:09:04;10.17;86.72
65291;SHT30;51893;59.754;10.110;2023-09-30T02:11:35;10.19;86.71
65291;SHT30;51893;59.754;10.110;2023-09-30T02:14:05;10.22;86.61
65291;SHT30;51893;59.754;10.110;2023-09-30T02:16:37;10.20;86.53
65291;SHT30;51893;59.754;10.110;2023-09-30T02:19:06;10.25;86.49
65291;SHT30;51893;59.754;10.110;2023-09-30T02:21:34;10.23;86.38
65291;SHT30;51893;59.754;10.110;2023-09-30T02:24:03;10.27;86.47
65291;SHT30;51893;59.754;10.110;2023-09-30T02:26:34;10.29;86.41
65291;SHT30;51893;59.754;10.110;2023-09-30T02:29:01;10.28;86.36
65291;SHT30;51893;59.754;10.110;2023-09-30T02:31:29;10.33;86.38
65291;SHT30;51893;59.754;10.110;2023-09-30T02:33:57;10.40;86.30
65291;SHT30;51893;59.754;10.110;2023-09-30T02:36:26;10.44;86.18
65291;SHT30;51893;59.754;10.110;2023-09-30T02:38:55;10.48;86.04
65291;SHT30;51893;59.754;10.110;2023-09-30T02:41:23;10.51;85.96
65291;SHT30;51893;59.754;10.110;2023-09-30T02:43:51;10.50;86.01
65291;SHT30;51893;59.754;10.110;2023-09-30T02:46:19;10.45;86.15
65291;SHT30;51893;59.754;10.110;2023-09-30T02:48:48;10.45;86.20
65291;SHT30;51893;59.754;10.110;2023-09-30T02:51:16;10.41;86.29
65291;SHT30;51893;59.754;10.110;2023-09-30T02:53:44;10.38;86.39
65291;SHT30;51893;59.754;10.110;2023-09-30T02:56:13;10.37;86.53
65291;SHT30;51893;59.754;10.110;2023-09-30T02:58:41;10.36;86.74
65291;SHT30;51893;59.754;10.110;2023-09-30T03:01:09;10.36;86.73
65291;SHT30;51893;59.754;10.110;2023-09-30T03:03:37;10.28;86.52
65291;SHT30;51893;59.754;10.110;2023-09-30T03:06:06;10.19;86.50
65291;SHT30;51893;59.754;10.110;2023-09-30T03:08:35;10.18;86.57
65291;SHT30;51893;59.754;10.110;2023-09-30T03:11:03;10.21;86.48
65291;SHT30;51893;59.754;10.110;2023-09-30T03:13:35;10.25;86.24
65291;SHT30;51893;59.754;10.110;2023-09-30T03:16:03;10.21;85.88
65291;SHT30;51893;59.754;10.110;2023-09-30T03:18:32;10.18;85.88
65291;SHT30;51893;59.754;10.110;2023-09-30T03:21:00;10.16;85.81
65291;SHT30;51893;59.754;10.110;2023-09-30T03:23:36;10.06;85.96
65291;SHT30;51893;59.754;10.110;2023-09-30T03:26:06;10.00;86.29
65291;SHT30;51893;59.754;10.110;2023-09-30T03:28:41;10.06;86.29
65291;SHT30;51893;59.754;10.110;2023-09-30T03:31:09;10.16;86.28
65291;SHT30;51893;59.754;10.110;2023-09-30T03:33:39;10.28;86.07
65291;SHT30;51893;59.754;10.110;2023-09-30T03:36:08;10.19;85.78
65291;SHT30;51893;59.754;10.110;2023-09-30T03:38:37;10.19;85.86
65291;SHT30;51893;59.754;10.110;2023-09-30T03:41:07;10.14;85.91
65291;SHT30;51893;59.754;10.110;2023-09-30T03:43:36;10.04;85.91
65291;SHT30;51893;59.754;10.110;2023-09-30T03:46:11;9.93;86.03
65291;SHT30;51893;59.754;10.110;2023-09-30T03:48:40;9.92;86.13
65291;SHT30;51893;59.754;10.110;2023-09-30T03:51:11;9.93;85.88
65291;SHT30;51893;59.754;10.110;2023-09-30T03:53:43;9.80;86.08
65291;SHT30;51893;59.754;10.110;2023-09-30T03:56:12;9.79;86.31
65291;SHT30;51893;59.754;10.110;2023-09-30T03:58:41;9.82;86.02
65291;SHT30;51893;59.754;10.110;2023-09-30T04:01:10;9.83;85.61
65291;SHT30;51893;59.754;10.110;2023-09-30T04:03:41;9.79;85.38
65291;SHT30;51893;59.754;10.110;2023-09-30T04:06:12;9.72;85.24
65291;SHT30;51893;59.754;10.110;2023-09-30T04:08:40;9.60;85.35
65291;SHT30;51893;59.754;10.110;2023-09-30T04:11:08;9.59;85.39
65291;SHT30;51893;59.754;10.110;2023-09-30T04:13:38;9.55;85.34
65291;SHT30;51893;59.754;10.110;2023-09-30T04:16:06;9.53;85.72
65291;SHT30;51893;59.754;10.110;2023-09-30T04:18:34;9.56;86.00
65291;SHT30;51893;59.754;10.110;2023-09-30T04:21:03;9.51;86.16
65291;SHT30;51893;59.754;10.110;2023-09-30T04:23:31;9.44;86.21
65291;SHT30;51893;59.754;10.110;2023-09-30T04:25:59;9.45;86.39
65291;SHT30;51893;59.754;10.110;2023-09-30T04:28:27;9.42;86.31
65291;SHT30;51893;59.754;10.110;2023-09-30T04:30:56;9.39;86.22
65291;SHT30;51893;59.754;10.110;2023-09-30T04:33:25;9.36;86.18
65291;SHT30;51893;59.754;10.110;2023-09-30T04:35:55;9.32;86.07
65291;SHT30;51893;59.754;10.110;2023-09-30T04:38:23;9.26;86.06
65291;SHT30;51893;59.754;10.110;2023-09-30T04:40:52;9.15;85.89
65291;SHT30;51893;59.754;10.110;2023-09-30T04:43:22;9.07;85.93
65291;SHT30;51893;59.754;10.110;2023-09-30T04:45:50;9.05;86.10
65291;SHT30;51893;59.754;10.110;2023-09-30T04:48:21;9.09;86.17
65291;SHT30;51893;59.754;10.110;2023-09-30T04:50:50;9.06;86.10
65291;SHT30;51893;59.754;10.110;2023-09-30T04:53:19;9.07;86.39
65291;SHT30;51893;59.754;10.110;2023-09-30T04:55:51;9.11;86.65
65291;SHT30;51893;59.754;10.110;2023-09-30T04:58:20;9.17;86.77
65291;SHT30;51893;59.754;10.110;2023-09-30T05:00:51;9.17;86.68
65291;SHT30;51893;59.754;10.110;2023-09-30T05:03:19;9.16;86.58
65291;SHT30;51893;59.754;10.110;2023-09-30T05:05:49;9.15;86.36
65291;SHT30;51893;59.754;10.110;2023-09-30T05:08:21;9.16;86.21
65291;SHT30;51893;59.754;10.110;2023-09-30T05:10:51;9.10;85.89
65291;SHT30;51893;59.754;10.110;2023-09-30T05:13:23;9.01;85.69
65291;SHT30;51893;59.754;10.110;2023-09-30T05:15:51;8.90;85.69
65291;SHT30;51893;59.754;10.110;2023-09-30T05:18:19;8.94;86.01
65291;SHT30;51893;59.754;10.110;2023-09-30T05:20:48;9.01;86.00
65291;SHT30;51893;59.754;10.110;2023-09-30T05:23:17;9.00;85.70
65291;SHT30;51893;59.754;10.110;2023-09-30T05:25:46;8.98;85.69
65291;SHT30;51893;59.754;10.110;2023-09-30T05:28:14;8.96;85.73
65291;SHT30;51893;59.754;10.110;2023-09-30T05:30:43;8.94;85.62
65291;SHT30;51893;59.754;10.110;2023-09-30T05:33:11;8.90;85.57
65291;SHT30;51893;59.754;10.110;2023-09-30T05:35:42;8.81;85.95
65291;SHT30;51893;59.754;10.110;2023-09-30T05:38:10;8.79;86.49
65291;SHT30;51893;59.754;10.110;2023-09-30T05:40:42;8.84;86.84
65291;SHT30;51893;59.754;10.110;2023-09-30T05:43:12;8.92;87.10
65291;SHT30;51893;59.754;10.110;2023-09-30T05:45:42;8.94;86.76
65291;SHT30;51893;59.754;10.110;2023-09-30T05:48:17;8.84;86.27
65291;SHT30;51893;59.754;10.110;2023-09-30T05:50:45;8.74;86.18
65291;SHT30;51893;59.754;10.110;2023-09-30T05:53:15;8.66;86.43
65291;SHT30;51893;59.754;10.110;2023-09-30T05:55:43;8.64;86.63
65291;SHT30;51893;59.754;10.110;2023-09-30T05:58:13;8.68;86.83
65291;SHT30;51893;59.754;10.110;2023-09-30T06:00:47;8.74;86.66
65291;SHT30;51893;59.754;10.110;2023-09-30T06:03:15;8.67;86.65
65291;SHT30;51893;59.754;10.110;2023-09-30T06:05:44;8.65;86.94
65291;SHT30;51893;59.754;10.110;2023-09-30T06:08:12;8.64;87.15
65291;SHT30;51893;59.754;10.110;2023-09-30T06:10:42;8.68;87.40
65291;SHT30;51893;59.754;10.110;2023-09-30T06:13:11;8.74;87.52
65291;SHT30;51893;59.754;10.110;2023-09-30T06:15:40;8.69;87.43
65291;SHT30;51893;59.754;10.110;2023-09-30T06:18:09;8.69;87.60
65291;SHT30;51893;59.754;10.110;2023-09-30T06:20:39;8.80;87.77
65291;SHT30;51893;59.754;10.110;2023-09-30T06:23:09;8.94;87.65
65291;SHT30;51893;59.754;10.110;2023-09-30T06:25:38;9.02;87.48
65291;SHT30;51893;59.754;10.110;2023-09-30T06:28:07;9.08;87.40
65291;SHT30;51893;59.754;10.110;2023-09-30T06:30:36;9.20;87.32
65291;SHT30;51893;59.754;10.110;2023-09-30T06:33:04;9.30;87.08
65291;SHT30;51893;59.754;10.110;2023-09-30T06:35:33;9.32;86.92
65291;SHT30;51893;59.754;10.110;2023-09-30T06:38:06;9.31;86.90
65291;SHT30;51893;59.754;10.110;2023-09-30T06:40:40;9.35;87.01
65291;SHT30;51893;59.754;10.110;2023-09-30T06:43:10;9.45;86.89
65291;SHT30;51893;59.754;10.110;2023-09-30T06:45:38;9.50;86.72
65291;SHT30;51893;59.754;10.110;2023-09-30T06:48:10;9.52;86.71
65291;SHT30;51893;59.754;10.110;2023-09-30T06:50:44;9.52;86.70
65291;SHT30;51893;59.754;10.110;2023-09-30T06:53:16;9.51;86.84
65291;SHT30;51893;59.754;10.110;2023-09-30T06:55:51;9.65;86.87
65291;SHT30;51893;59.754;10.110;2023-09-30T06:58:21;9.73;86.62
65291;SHT30;51893;59.754;10.110;2023-09-30T07:00:50;9.82;86.60
65291;SHT30;51893;59.754;10.110;2023-09-30T07:03:21;9.86;86.85
65291;SHT30;51893;59.754;10.110;2023-09-30T07:05:54;9.91;87.17
65291;SHT30;51893;59.754;10.110;2023-09-30T07:08:25;9.98;87.36
65291;SHT30;51893;59.754;10.110;2023-09-30T07:10:57;10.02;87.59
65291;SHT30;51893;59.754;10.110;2023-09-30T07:13:25;10.05;87.59
65291;SHT30;51893;59.754;10.110;2023-09-30T07:15:53;10.07;87.60
65291;SHT30;51893;59.754;10.110;2023-09-30T07:18:21;10.05;87.65
65291;SHT30;51893;59.754;10.110;2023-09-30T07:20:49;10.05;87.80
65291;SHT30;51893;59.754;10.110;2023-09-30T07:23:19;10.08;87.76
65291;SHT30;51893;59.754;10.110;2023-09-30T07:25:47;10.12;87.71
65291;SHT30;51893;59.754;10.110;2023-09-30T07:28:17;10.17;87.67
65291;SHT30;51893;59.754;10.110;2023-09-30T07:30:45;10.23;87.55
65291;SHT30;51893;59.754;10.110;2023-09-30T07:33:13;10.30;87.46
65291;SHT30;51893;59.754;10.110;2023-09-30T07:35:41;10.34;87.40
65291;SHT30;51893;59.754;10.110;2023-09-30T07:38:09;10.38;87.39
65291;SHT30;51893;59.754;10.110;2023-09-30T07:40:39;10.42;87.39
65291;SHT30;51893;59.754;10.110;2023-09-30T07:43:10;10.46;87.28
65291;SHT30;51893;59.754;10.110;2023-09-30T07:45:40;10.49;87.19
65291;SHT30;51893;59.754;10.110;2023-09-30T07:48:11;10.55;87.11
65291;SHT30;51893;59.754;10.110;2023-09-30T07:50:39;10.64;87.11
65291;SHT30;51893;59.754;10.110;2023-09-30T07:53:08;10.71;86.89
65291;SHT30;51893;59.754;10.110;2023-09-30T07:55:36;10.74;87.01
65291;SHT30;51893;59.754;10.110;2023-09-30T07:58:04;10.79;87.06
65291;SHT30;51893;59.754;10.110;2023-09-30T08:00:32;10.86;87.09
65291;SHT30;51893;59.754;10.110;2023-09-30T08:03:01;10.96;86.86
65291;SHT30;51893;59.754;10.110;2023-09-30T08:05:29;11.04;86.40
65291;SHT30;51893;59.754;10.110;2023-09-30T08:07:57;11.10;86.09
65291;SHT30;51893;59.754;10.110;2023-09-30T08:10:26;11.25;85.95
65291;SHT30;51893;59.754;10.110;2023-09-30T08:12:54;11.34;85.60
65291;SHT30;51893;59.754;10.110;2023-09-30T08:15:25;11.46;85.79
65291;SHT30;51893;59.754;10.110;2023-09-30T08:17:53;11.57;85.88
65291;SHT30;51893;59.754;10.110;2023-09-30T08:20:21;11.70;85.82
65291;SHT30;51893;59.754;10.110;2023-09-30T08:22:49;11.84;85.50
65291;SHT30;51893;59.754;10.110;2023-09-30T08:25:18;11.85;85.15
65291;SHT30;51893;59.754;10.110;2023-09-30T08:27:46;11.89;84.99
65291;SHT30;51893;59.754;10.110;2023-09-30T08:30:17;11.94;84.73
65291;SHT30;51893;59.754;10.110;2023-09-30T08:32:46;11.99;84.37
65291;SHT30;51893;59.754;10.110;2023-09-30T08:35:15;12.10;84.36
65291;SHT30;51893;59.754;10.110;2023-09-30T08:37:43;12.26;84.20
65291;SHT30;51893;59.754;10.110;2023-09-30T08:40:12;12.45;83.81
65291;SHT30;51893;59.754;10.110;2023-09-30T08:42:40;12.61;83.57
65291;SHT30;51893;59.754;10.110;2023-09-30T08:45:10;12.76;83.72
65291;SHT30;51893;59.754;10.110;2023-09-30T08:47:42;12.90;83.72
65291;SHT30;51893;59.754;10.110;2023-09-30T08:50:11;13.03;83.49
65291;SHT30;51893;59.754;10.110;2023-09-30T08:52:41;13.19;83.16
65291;SHT30;51893;59.754;10.110;2023-09-30T08:55:12;13.34;82.45
65291;SHT30;51893;59.754;10.110;2023-09-30T08:57:41;13.48;81.58
65291;SHT30;51893;59.754;10.110;2023-09-30T09:00:11;13.63;80.62
65291;SHT30;51893;59.754;10.110;2023-09-30T09:02:41;13.77;80.35
65291;SHT30;51893;59.754;10.110;2023-09-30T09:05:11;13.90;80.07
65291;SHT30;51893;59.754;10.110;2023-09-30T09:07:39;14.04;79.66
65291;SHT30;51893;59.754;10.110;2023-09-30T09:10:08;14.06;78.49
65291;SHT30;51893;59.754;10.110;2023-09-30T09:12:41;14.03;78.23
65291;SHT30;51893;59.754;10.110;2023-09-30T09:15:21;14.09;77.96
65291;SHT30;51893;59.754;10.110;2023-09-30T09:17:51;14.07;77.11
65291;SHT30;51893;59.754;10.110;2023-09-30T09:20:21;14.09;76.40
65291;SHT30;51893;59.754;10.110;2023-09-30T09:22:52;14.17;76.25
65291;SHT30;51893;59.754;10.110;2023-09-30T09:25:24;14.30;76.20
65291;SHT30;51893;59.754;10.110;2023-09-30T09:27:53;14.51;76.84
65291;SHT30;51893;59.754;10.110;2023-09-30T09:30:23;14.71;77.27
65291;SHT30;51893;59.754;10.110;2023-09-30T09:33:14;14.84;76.92
65291;SHT30;51893;59.754;10.110;2023-09-30T09:35:46;14.86;75.72
65291;SHT30;51893;59.754;10.110;2023-09-30T09:38:16;14.98;75.63
65291;SHT30;51893;59.754;10.110;2023-09-30T09:40:43;15.10;75.54
65291;SHT30;51893;59.754;10.110;2023-09-30T09:43:12;15.26;76.08
65291;SHT30;51893;59.754;10.110;2023-09-30T09:45:40;15.41;75.68
65291;SHT30;51893;59.754;10.110;2023-09-30T09:48:11;15.49;75.86
65291;SHT30;51893;59.754;10.110;2023-09-30T09:50:39;15.66;75.13
65291;SHT30;51893;59.754;10.110;2023-09-30T09:53:10;15.81;73.97
65291;SHT30;51893;59.754;10.110;2023-09-30T09:55:40;16.01;74.55
65291;SHT30;51893;59.754;10.110;2023-09-30T09:58:10;16.17;72.65
65291;SHT30;51893;59.754;10.110;2023-09-30T10:00:40;16.25;68.26
65291;SHT30;51893;59.754;10.110;2023-09-30T10:03:09;16.33;68.19
65291;SHT30;51893;59.754;10.110;2023-09-30T10:05:38;16.41;70.27
65291;SHT30;51893;59.754;10.110;2023-09-30T10:08:08;16.56;71.37
65291;SHT30;51893;59.754;10.110;2023-09-30T10:10:45;16.75;71.19
65291;SHT30;51893;59.754;10.110;2023-09-30T10:19:07;17.11;67.30
65291;SHT30;51893;59.754;10.110;2023-09-30T10:25:33;17.15;63.60
65291;SHT30;51893;59.754;10.110;2023-09-30T10:31:10;17.35;62.69
65291;SHT30;51893;59.754;10.110;2023-09-30T10:36:34;17.50;60.51
65291;SHT30;51893;59.754;10.110;2023-09-30T10:39:13;17.58;58.60
65291;SHT30;51893;59.754;10.110;2023-09-30T10:46:51;17.93;59.92
65291;SHT30;51893;59.754;10.110;2023-09-30T10:51:51;18.15;56.88
65291;SHT30;51893;59.754;10.110;2023-09-30T10:54:28;18.28;56.86
65291;SHT30;51893;59.754;10.110;2023-09-30T10:57:01;18.37;55.62
65291;SHT30;51893;59.754;10.110;2023-09-30T10:59:32;18.43;55.66
65291;SHT30;51893;59.754;10.110;2023-09-30T11:02:03;18.51;54.69
65291;SHT30;51893;59.754;10.110;2023-09-30T11:04:47;18.57;53.26
65291;SHT30;51893;59.754;10.110;2023-09-30T11:07:18;18.66;52.87
65291;SHT30;51893;59.754;10.110;2023-09-30T11:09:53;18.75;53.90
65291;SHT30;51893;59.754;10.110;2023-09-30T11:12:21;18.83;52.37
65291;SHT30;51893;59.754;10.110;2023-09-30T11:14:58;18.81;51.23
65291;SHT30;51893;59.754;10.110;2023-09-30T11:17:29;18.74;51.43
65291;SHT30;51893;59.754;10.110;2023-09-30T11:19:57;18.69;51.05
65291;SHT30;51893;59.754;10.110;2023-09-30T11:22:25;18.66;52.12
65291;SHT30;51893;59.754;10.110;2023-09-30T11:24:56;18.73;53.81
65291;SHT30;51893;59.754;10.110;2023-09-30T11:27:24;18.85;54.72
65291;SHT30;51893;59.754;10.110;2023-09-30T11:29:53;18.98;53.06
65291;SHT30;51893;59.754;10.110;2023-09-30T11:32:24;19.11;53.29
65291;SHT30;51893;59.754;10.110;2023-09-30T11:34:57;19.18;52.60
65291;SHT30;51893;59.754;10.110;2023-09-30T11:37:34;19.24;52.16
65291;SHT30;51893;59.754;10.110;2023-09-30T11:40:09;19.15;50.75
65291;SHT30;51893;59.754;10.110;2023-09-30T11:42:41;19.01;52.00
65291;SHT30;51893;59.754;10.110;2023-09-30T11:45:19;18.93;51.57
65291;SHT30;51893;59.754;10.110;2023-09-30T11:47:50;18.85;52.58
65291;SHT30;51893;59.754;10.110;2023-09-30T11:50:21;18.88;52.37
65291;SHT30;51893;59.754;10.110;2023-09-30T11:52:52;19.00;52.50
65291;SHT30;51893;59.754;10.110;2023-09-30T11:55:19;19.18;53.18
65291;SHT30;51893;59.754;10.110;2023-09-30T11:57:48;19.38;53.56
65291;SHT30;51893;59.754;10.110;2023-09-30T12:00:18;19.55;52.57
65291;SHT30;51893;59.754;10.110;2023-09-30T12:02:46;19.72;52.25
65291;SHT30;51893;59.754;10.110;2023-09-30T12:05:14;19.88;51.95
65291;SHT30;51893;59.754;10.110;2023-09-30T12:07:42;19.99;50.98
65291;SHT30;51893;59.754;10.110;2023-09-30T12:10:10;20.12;50.26
65291;SHT30;51893;59.754;10.110;2023-09-30T12:12:38;20.19;50.08
65291;SHT30;51893;59.754;10.110;2023-09-30T12:15:08;20.31;50.37
65291;SHT30;51893;59.754;10.110;2023-09-30T12:17:39;20.27;49.37
65291;SHT30;51893;59.754;10.110;2023-09-30T12:20:07;20.17;49.30
65291;SHT30;51893;59.754;10.110;2023-09-30T12:22:37;20.15;49.10
65291;SHT30;51893;59.754;10.110;2023-09-30T12:25:05;20.04;48.42
65291;SHT30;51893;59.754;10.110;2023-09-30T12:27:35;19.91;47.44
65291;SHT30;51893;59.754;10.110;2023-09-30T12:30:04;19.93;48.15
65291;SHT30;51893;59.754;10.110;2023-09-30T12:32:35;20.02;48.00
65291;SHT30;51893;59.754;10.110;2023-09-30T12:35:04;20.12;47.98
65291;SHT30;51893;59.754;10.110;2023-09-30T12:37:33;20.24;47.64
65291;SHT30;51893;59.754;10.110;2023-09-30T12:40:01;20.32;47.91
65291;SHT30;51893;59.754;10.110;2023-09-30T12:42:30;20.40;46.94
65291;SHT30;51893;59.754;10.110;2023-09-30T12:44:58;20.30;46.25
65291;SHT30;51893;59.754;10.110;2023-09-30T12:47:27;20.17;45.75
65291;SHT30;51893;59.754;10.110;2023-09-30T12:49:56;19.95;45.55
65291;SHT30;51893;59.754;10.110;2023-09-30T12:52:24;19.83;45.15
65291;SHT30;51893;59.754;10.110;2023-09-30T12:54:53;19.69;45.26
65291;SHT30;51893;59.754;10.110;2023-09-30T12:57:21;19.58;45.88
65291;SHT30;51893;59.754;10.110;2023-09-30T12:59:50;19.52;46.57
65291;SHT30;51893;59.754;10.110;2023-09-30T13:02:19;19.46;45.73
65291;SHT30;51893;59.754;10.110;2023-09-30T13:04:49;19.40;46.23
65291;SHT30;51893;59.754;10.110;2023-09-30T13:07:18;19.31;46.41
65291;SHT30;51893;59.754;10.110;2023-09-30T13:09:46;19.21;46.56
65291;SHT30;51893;59.754;10.110;2023-09-30T13:12:14;19.16;47.45
65291;SHT30;51893;59.754;10.110;2023-09-30T13:14:44;19.14;47.81
65291;SHT30;51893;59.754;10.110;2023-09-30T13:17:12;19.12;48.38
65291;SHT30;51893;59.754;10.110;2023-09-30T13:19:41;19.13;48.67
65291;SHT30;51893;59.754;10.110;2023-09-30T13:22:09;19.09;47.63
65291;SHT30;51893;59.754;10.110;2023-09-30T13:24:45;19.09;47.33
65291;SHT30;51893;59.754;10.110;2023-09-30T13:27:13;19.08;47.32
65291;SHT30;51893;59.754;10.110;2023-09-30T13:29:45;19.09;46.49
65291;SHT30;51893;59.754;10.110;2023-09-30T13:32:13;19.13;46.31
65291;SHT30;51893;59.754;10.110;2023-09-30T13:34:42;19.16;46.89
65291;SHT30;51893;59.754;10.110;2023-09-30T13:37:11;19.19;48.08
65291;SHT30;51893;59.754;10.110;2023-09-30T13:39:41;19.18;47.59
65291;SHT30;51893;59.754;10.110;2023-09-30T13:42:09;19.15;46.63
65291;SHT30;51893;59.754;10.110;2023-09-30T13:44:37;19.11;46.44
65291;SHT30;51893;59.754;10.110;2023-09-30T13:47:05;19.10;47.06
65291;SHT30;51893;59.754;10.110;2023-09-30T13:49:36;19.10;48.22
65291;SHT30;51893;59.754;10.110;2023-09-30T13:52:04;19.10;48.71
65291;SHT30;51893;59.754;10.110;2023-09-30T13:54:33;19.07;48.15
65291;SHT30;51893;59.754;10.110;2023-09-30T13:57:02;19.04;48.17
65291;SHT30;51893;59.754;10.110;2023-09-30T13:59:33;18.96;48.14
65291;SHT30;51893;59.754;10.110;2023-09-30T14:02:07;18.88;48.50
65291;SHT30;51893;59.754;10.110;2023-09-30T14:04:36;18.82;48.64
65291;SHT30;51893;59.754;10.110;2023-09-30T14:07:09;18.76;48.37
65291;SHT30;51893;59.754;10.110;2023-09-30T14:09:37;18.75;48.25
65291;SHT30;51893;59.754;10.110;2023-09-30T14:12:06;18.74;49.32
65291;SHT30;51893;59.754;10.110;2023-09-30T14:14:35;18.73;48.66
65291;SHT30;51893;59.754;10.110;2023-09-30T14:17:04;18.73;48.28
65291;SHT30;51893;59.754;10.110;2023-09-30T14:19:37;18.70;48.29
65291;SHT30;51893;59.754;10.110;2023-09-30T14:22:06;18.69;47.99
65291;SHT30;51893;59.754;10.110;2023-09-30T14:24:36;18.70;48.32
65291;SHT30;51893;59.754;10.110;2023-09-30T14:27:04;18.70;48.76
65291;SHT30;51893;59.754;10.110;2023-09-30T14:29:32;18.69;48.58
65291;SHT30;51893;59.754;10.110;2023-09-30T14:32:01;18.70;48.67
65291;SHT30;51893;59.754;10.110;2023-09-30T14:34:30;18.71;49.19
65291;SHT30;51893;59.754;10.110;2023-09-30T14:36:58;18.70;48.87
65291;SHT30;51893;59.754;10.110;2023-09-30T14:39:26;18.71;49.13
65291;SHT30;51893;59.754;10.110;2023-09-30T14:41:56;18.69;49.49
65291;SHT30;51893;59.754;10.110;2023-09-30T14:44:24;18.70;49.42
65291;SHT30;51893;59.754;10.110;2023-09-30T14:46:53;18.68;49.51
65291;SHT30;51893;59.754;10.110;2023-09-30T14:49:24;18.70;49.06
65291;SHT30;51893;59.754;10.110;2023-09-30T14:51:52;18.72;49.06
65291;SHT30;51893;59.754;10.110;2023-09-30T14:54:20;18.72;48.36
65291;SHT30;51893;59.754;10.110;2023-09-30T14:56:49;18.73;48.45
65291;SHT30;51893;59.754;10.110;2023-09-30T14:59:17;18.70;48.53
65291;SHT30;51893;59.754;10.110;2023-09-30T15:01:46;18.68;48.00
65291;SHT30;51893;59.754;10.110;2023-09-30T15:04:15;18.67;47.38
65291;SHT30;51893;59.754;10.110;2023-09-30T15:06:44;18.63;47.36
65291;SHT30;51893;59.754;10.110;2023-09-30T15:09:13;18.59;47.08
65291;SHT30;51893;59.754;10.110;2023-09-30T15:11:42;18.54;47.28
65291;SHT30;51893;59.754;10.110;2023-09-30T15:14:10;18.50;47.38
65291;SHT30;51893;59.754;10.110;2023-09-30T15:16:38;18.44;47.21
65291;SHT30;51893;59.754;10.110;2023-09-30T15:19:06;18.40;47.86
65291;SHT30;51893;59.754;10.110;2023-09-30T15:21:35;18.36;48.22
65291;SHT30;51893;59.754;10.110;2023-09-30T15:24:04;18.29;49.10
65291;SHT30;51893;59.754;10.110;2023-09-30T15:26:35;18.23;48.70
65291;SHT30;51893;59.754;10.110;2023-09-30T15:29:03;18.19;48.65
65291;SHT30;51893;59.754;10.110;2023-09-30T15:31:32;18.15;48.83
65291;SHT30;51893;59.754;10.110;2023-09-30T15:34:01;18.09;49.39
65291;SHT30;51893;59.754;10.110;2023-09-30T15:36:31;18.04;49.85
65291;SHT30;51893;59.754;10.110;2023-09-30T15:38:59;18.00;49.61
65291;SHT30;51893;59.754;10.110;2023-09-30T15:41:29;17.97;49.26
65291;SHT30;51893;59.754;10.110;2023-09-30T15:43:58;17.94;49.36
65291;SHT30;51893;59.754;10.110;2023-09-30T15:46:28;17.93;49.57
65291;SHT30;51893;59.754;10.110;2023-09-30T15:48:57;17.89;49.62
65291;SHT30;51893;59.754;10.110;2023-09-30T15:51:25;17.85;49.44
65291;SHT30;51893;59.754;10.110;2023-09-30T15:53:53;17.82;48.91
65291;SHT30;51893;59.754;10.110;2023-09-30T15:56:21;17.83;48.60